.
WxDataArchive / Data Records for 2011-11-18
2011-11-17 November 2011 2011-11-19

Data Records for Friday, 18 November 2011

Time	Temp	Chill	HIndex	Humid	Dewpt	 Wind 	HiWind	WindDir	Rain 	Barom 
-----	----	-----	------	-----	-----	------	------	-------	-----	----- 
00:00	27.2	27.2	27.2	61	15.6	0	2	248	0.00	30.296 
00:05	27.2	27.2	27.2	61	15.6	0	2	248	0.00	30.296 
00:10	27.3	27.3	27.3	61	15.7	0	2	248	0.00	30.296 
00:15	27.3	27.3	27.3	62	16.0	0	2	248	0.00	30.300 
00:20	27.3	27.3	27.3	62	16.0	0	1	248	0.00	30.300 
00:25	27.3	27.3	27.3	62	16.0	0	1	248	0.00	30.300 
00:30	27.2	27.2	27.2	63	16.3	0	1	248	0.00	30.298 
00:35	27.0	27.0	27.0	63	16.1	0	0	---	0.00	30.298 
00:40	26.7	26.7	26.7	64	16.2	0	0	---	0.00	30.298 
00:45	26.6	26.6	26.6	64	16.1	0	0	---	0.00	30.299 
00:50	26.4	26.4	26.4	65	16.3	0	0	---	0.00	30.299 
00:55	26.3	26.3	26.3	65	16.2	0	0	---	0.00	30.299 
01:00	26.1	26.1	26.1	66	16.3	0	0	---	0.00	30.297 
01:05	26.0	26.0	26.0	67	16.6	0	0	---	0.00	30.297 
01:10	25.7	25.7	25.7	67	16.3	0	0	---	0.00	30.297 
01:15	25.6	25.6	25.6	68	16.5	0	1	248	0.00	30.300 
01:20	25.4	25.4	25.4	68	16.3	0	0	---	0.00	30.300 
01:25	25.4	25.4	25.4	69	16.7	0	0	---	0.00	30.300 
01:30	25.3	25.3	25.3	69	16.6	0	0	---	0.00	30.307 
01:35	25.3	25.3	25.3	70	16.9	0	0	---	0.00	30.307 
01:40	25.3	25.3	25.3	70	16.9	0	0	---	0.00	30.307 
01:45	25.1	25.1	25.1	71	17.0	0	0	---	0.00	30.305 
01:50	25.1	25.1	25.1	71	17.0	0	0	---	0.00	30.305 
01:55	25.1	25.1	25.1	72	17.4	0	1	248	0.00	30.305 
02:00	25.0	25.0	25.0	72	17.3	0	0	---	0.00	30.304 
02:05	25.0	25.0	25.0	73	17.6	0	1	248	0.00	30.304 
02:10	25.1	25.1	25.1	73	17.7	0	0	---	0.00	30.304 
02:15	25.1	25.1	25.1	73	17.7	0	1	248	0.00	30.306 
02:20	25.3	25.3	25.3	73	17.9	0	0	---	0.00	30.306 
02:25	25.3	25.3	25.3	73	17.9	0	0	---	0.00	30.306 
02:30	25.1	25.1	25.1	73	17.7	0	0	---	0.00	30.303 
02:35	25.1	25.1	25.1	73	17.7	0	0	---	0.00	30.303 
02:40	25.1	25.1	25.1	73	17.7	0	0	---	0.00	30.303 
02:45	25.0	25.0	25.0	73	17.6	0	0	---	0.00	30.311 
02:50	24.8	24.8	24.8	73	17.4	0	0	---	0.00	30.311 
02:55	24.7	24.7	24.7	73	17.3	0	0	---	0.00	30.311 
03:00	24.5	24.5	24.5	73	17.1	0	0	---	0.00	30.314 
03:05	24.4	24.4	24.4	74	17.3	0	0	---	0.00	30.314 
03:10	24.4	24.4	24.4	74	17.3	0	0	---	0.00	30.314 
03:15	24.2	24.2	24.2	74	17.1	0	0	---	0.00	30.313 
03:20	24.2	24.2	24.2	74	17.1	0	0	---	0.00	30.313 
03:25	24.1	24.1	24.1	74	17.0	0	0	---	0.00	30.313 
03:30	24.1	24.1	24.1	75	17.3	0	0	---	0.00	30.313 
03:35	24.1	24.1	24.1	75	17.3	0	0	---	0.00	30.313 
03:40	24.1	24.1	24.1	75	17.3	0	0	---	0.00	30.313 
03:45	24.1	24.1	24.1	75	17.3	0	0	---	0.00	30.313 
03:50	24.1	24.1	24.1	75	17.3	0	0	---	0.00	30.313 
03:55	24.2	24.2	24.2	75	17.4	0	0	---	0.00	30.313 
04:00	24.2	24.2	24.2	75	17.4	0	0	---	0.00	30.311 
04:05	24.4	24.4	24.4	75	17.6	0	0	---	0.00	30.311 
04:10	24.4	24.4	24.4	75	17.6	0	0	---	0.00	30.311 
04:15	24.4	24.4	24.4	75	17.6	0	0	---	0.00	30.312 
04:20	24.4	24.4	24.4	74	17.3	0	0	---	0.00	30.312 
04:25	24.4	24.4	24.4	74	17.3	0	0	---	0.00	30.312 
04:30	24.4	24.4	24.4	74	17.3	0	0	---	0.00	30.313 
04:35	24.4	24.4	24.4	74	17.3	0	0	---	0.00	30.313 
04:40	24.5	24.5	24.5	74	17.4	0	0	---	0.00	30.313 
04:45	24.7	24.7	24.7	74	17.6	0	1	248	0.00	30.316 
04:50	24.8	24.8	24.8	73	17.4	0	1	248	0.00	30.316 
04:55	25.1	25.1	25.1	73	17.7	0	1	248	0.00	30.316 
05:00	25.4	25.4	25.4	72	17.7	0	1	248	0.00	30.319 
05:05	25.6	25.6	25.6	71	17.5	0	1	248	0.00	30.319 
05:10	25.7	25.7	25.7	71	17.6	0	1	248	0.00	30.319 
05:15	25.8	25.8	25.8	70	17.4	0	0	---	0.00	30.321 
05:20	25.8	25.8	25.8	70	17.4	0	2	248	0.00	30.321 
05:25	26.0	26.0	26.0	69	17.2	0	1	248	0.00	30.321 
05:30	26.0	26.0	26.0	69	17.2	0	5	248	0.00	30.327 
05:35	26.1	26.1	26.1	69	17.3	0	1	248	0.00	30.327 
05:40	26.3	26.3	26.3	69	17.5	0	3	248	0.00	30.327 
05:45	26.3	26.3	26.3	68	17.2	0	1	248	0.00	30.325 
05:50	26.3	26.3	26.3	68	17.2	0	1	248	0.00	30.325 
05:55	26.4	26.4	26.4	68	17.3	0	1	248	0.00	30.325 
06:00	26.4	26.4	26.4	68	17.3	0	1	248	0.00	30.321 
06:05	26.4	26.4	26.4	68	17.3	0	2	248	0.00	30.321 
06:10	26.4	26.4	26.4	68	17.3	0	1	248	0.00	30.321 
06:15	26.4	26.4	26.4	68	17.3	0	1	248	0.00	30.322 
06:20	26.4	26.4	26.4	68	17.3	0	1	248	0.00	30.322 
06:25	26.4	26.4	26.4	68	17.3	0	2	248	0.00	30.322 
06:30	26.4	26.4	26.4	68	17.3	0	3	248	0.00	30.318 
06:35	26.6	26.6	26.6	67	17.1	0	3	248	0.00	30.318 
06:40	26.6	26.6	26.6	67	17.1	0	2	248	0.00	30.318 
06:45	26.7	26.7	26.7	67	17.2	0	2	248	0.00	30.317 
06:50	26.7	26.7	26.7	67	17.2	0	2	248	0.00	30.317 
06:55	26.9	26.9	26.9	66	17.1	0	2	248	0.00	30.317 
07:00	27.0	27.0	27.0	66	17.2	0	2	248	0.00	30.324 
07:05	27.0	27.0	27.0	66	17.2	0	3	248	0.00	30.324 
07:10	27.0	27.0	27.0	66	17.2	0	1	248	0.00	30.324 
07:15	27.0	27.0	27.0	66	17.2	0	2	248	0.00	30.320 
07:20	26.9	26.9	26.9	66	17.1	0	2	248	0.00	30.320 
07:25	27.0	27.0	27.0	65	16.8	0	2	248	0.00	30.320 
07:30	27.0	27.0	27.0	65	16.8	0	1	248	0.00	30.316 
07:35	27.2	27.2	27.2	65	17.0	0	3	248	0.00	30.316 
07:40	27.3	27.3	27.3	65	17.1	0	2	248	0.00	30.316 
07:45	27.5	27.5	27.5	65	17.3	0	3	248	0.00	30.316 
07:50	27.6	27.6	27.6	64	17.0	0	2	248	0.00	30.316 
07:55	27.9	27.9	27.9	63	17.0	0	2	248	0.00	30.316 
08:00	28.2	28.2	28.2	63	17.2	0	3	248	0.00	30.314 
08:05	28.5	28.5	28.5	62	17.2	1	4	248	0.00	30.314 
08:10	28.8	28.8	28.8	62	17.4	1	4	248	0.00	30.314 
08:15	29.1	29.1	29.1	61	17.4	1	3	248	0.00	30.314 
08:20	29.7	29.7	29.7	60	17.5	1	4	248	0.00	30.314 
08:25	30.1	30.1	30.1	59	17.5	1	5	315	0.00	30.314 
08:30	30.4	30.4	30.4	58	17.4	1	4	248	0.00	30.316 
08:35	30.7	30.7	30.7	57	17.3	1	4	248	0.00	30.316 
08:40	31.0	31.0	31.0	57	17.6	1	4	248	0.00	30.316 
08:45	31.3	31.3	31.3	56	17.4	1	4	248	0.00	30.314 
08:50	31.6	31.6	31.6	55	17.3	1	5	225	0.00	30.314 
08:55	31.9	31.9	31.9	54	17.2	2	5	248	0.00	30.314 
09:00	32.4	32.4	32.4	54	17.6	1	3	225	0.00	30.311 
09:05	32.8	32.8	32.8	53	17.6	1	3	248	0.00	30.311 
09:10	33.4	33.4	33.4	51	17.2	2	5	270	0.00	30.311 
09:15	33.8	33.8	33.8	50	17.2	2	7	248	0.00	30.311 
09:20	34.3	34.3	34.3	50	17.6	1	4	248	0.00	30.311 
09:25	34.7	34.7	34.7	48	17.0	2	6	248	0.00	30.311 
09:30	35.0	35.0	35.0	48	17.3	1	4	248	0.00	30.308 
09:35	35.2	35.2	35.2	47	17.0	1	4	248	0.00	30.308 
09:40	35.5	35.5	35.5	48	17.8	1	5	248	0.00	30.308 
09:45	35.6	35.6	35.6	47	17.4	1	4	248	0.00	30.307 
09:50	35.8	35.8	35.8	46	17.1	2	7	248	0.00	30.307 
09:55	36.0	36.0	36.0	47	17.7	1	5	292	0.00	30.307 
10:00	36.3	36.3	36.3	46	17.5	2	6	248	0.00	30.302 
10:05	36.6	36.6	36.6	47	18.3	0	4	248	0.00	30.302 
10:10	37.0	37.0	37.0	46	18.2	2	5	248	0.00	30.302 
10:15	37.3	37.3	37.3	46	18.4	2	6	248	0.00	30.306 
10:20	37.6	37.6	37.6	45	18.2	1	9	248	0.00	30.306 
10:25	37.9	37.9	37.9	43	17.4	2	6	248	0.00	30.306 
10:30	38.2	38.2	38.2	42	17.2	3	6	225	0.00	30.299 
10:35	38.5	38.5	38.5	41	16.9	2	7	248	0.00	30.299 
10:40	38.8	38.8	38.8	41	17.1	2	7	248	0.00	30.299 
10:45	38.9	38.9	38.9	40	16.7	3	6	270	0.00	30.295 
10:50	39.2	39.2	39.2	39	16.3	2	7	248	0.00	30.295 
10:55	39.6	39.6	39.6	40	17.3	3	7	248	0.00	30.295 
11:00	39.9	39.9	39.9	39	17.0	1	5	248	0.00	30.287 
11:05	40.3	40.3	40.3	39	17.3	2	6	248	0.00	30.287 
11:10	40.6	40.6	40.6	37	16.4	3	9	270	0.00	30.287 
11:15	40.9	40.9	40.9	38	17.3	2	7	248	0.00	30.278 
11:20	41.2	41.2	41.2	38	17.5	2	6	225	0.00	30.278 
11:25	41.6	41.6	41.6	37	17.3	2	10	248	0.00	30.278 
11:30	41.9	41.9	41.9	35	16.3	3	10	248	0.00	30.271 
11:35	42.2	42.2	42.2	35	16.5	2	6	248	0.00	30.271 
11:40	42.3	42.3	42.3	33	15.3	2	7	248	0.00	30.271 
11:45	42.6	42.6	42.6	32	14.8	3	10	248	0.00	30.260 
11:50	42.6	42.6	42.6	31	14.1	3	9	248	0.00	30.260 
11:55	42.8	40.6	42.8	31	14.3	4	12	248	0.00	30.260 
12:00	42.9	40.7	42.9	29	12.9	4	13	248	0.00	30.254 
12:05	43.1	40.1	43.1	29	13.0	5	13	248	0.00	30.254 
12:10	43.2	41.0	43.2	31	14.6	4	11	248	0.00	30.254 
12:15	43.3	43.3	43.3	30	14.0	3	10	248	0.00	30.242 
12:20	43.6	43.6	43.6	31	15.0	3	9	248	0.00	30.242 
12:25	43.8	41.7	43.8	31	15.2	4	13	248	0.00	30.242 
12:30	43.9	43.9	43.9	29	13.7	3	9	248	0.00	30.227 
12:35	44.2	44.2	44.2	31	15.5	3	12	248	0.00	30.227 
12:40	44.3	44.3	44.3	29	14.1	3	9	248	0.00	30.227 
12:45	44.3	42.3	44.3	29	14.1	4	10	248	0.00	30.226 
12:50	44.5	44.5	44.5	28	13.4	3	9	248	0.00	30.226 
12:55	44.8	44.8	44.8	29	14.5	3	10	248	0.00	30.226 
13:00	44.9	43.0	44.9	27	13.0	4	12	248	0.00	30.216 
13:05	44.9	42.2	44.9	27	13.0	5	12	248	0.00	30.216 
13:10	45.1	45.1	45.1	27	13.1	3	10	270	0.00	30.216 
13:15	45.1	45.1	45.1	27	13.1	3	10	248	0.00	30.208 
13:20	45.4	45.4	45.4	28	14.2	2	6	248	0.00	30.208 
13:25	45.7	45.7	45.7	27	13.7	3	9	270	0.00	30.208 
13:30	45.8	45.8	45.8	27	13.7	3	11	248	0.00	30.201 
13:35	45.8	44.0	45.8	27	13.7	4	13	248	0.00	30.201 
13:40	46.0	46.0	46.0	27	13.9	3	11	248	0.00	30.201 
13:45	46.1	46.1	46.1	26	13.1	3	9	248	0.00	30.191 
13:50	46.4	46.4	46.4	28	15.1	3	10	248	0.00	30.191 
13:55	46.7	46.7	46.7	30	16.9	1	6	248	0.00	30.191 
14:00	46.8	46.8	46.8	28	15.4	2	9	315	0.00	30.178 
14:05	46.8	46.8	46.8	28	15.4	2	7	248	0.00	30.178 
14:10	46.8	45.2	46.8	27	14.6	4	10	248	0.00	30.178 
14:15	46.8	46.8	46.8	28	15.4	3	11	270	0.00	30.171 
14:20	47.0	47.0	47.0	28	15.6	2	8	248	0.00	30.171 
14:25	47.3	47.3	47.3	28	15.9	2	7	248	0.00	30.171 
14:30	47.3	47.3	47.3	27	15.0	2	12	248	0.00	30.160 
14:35	47.3	47.3	47.3	27	15.0	3	10	248	0.00	30.160 
14:40	47.3	45.8	47.3	26	14.2	4	11	248	0.00	30.160 
14:45	47.0	47.0	47.0	27	14.8	3	11	248	0.00	30.153 
14:50	46.8	46.8	46.8	28	15.4	2	5	225	0.00	30.153 
14:55	46.7	46.7	46.7	29	16.2	2	7	225	0.00	30.153 
15:00	46.7	45.1	46.7	27	14.5	4	10	248	0.00	30.147 
15:05	47.0	47.0	47.0	28	15.6	2	9	248	0.00	30.147 
15:10	47.3	47.3	47.3	28	15.9	2	9	248	0.00	30.147 
15:15	47.3	47.3	47.3	27	15.0	3	9	270	0.00	30.143 
15:20	47.4	47.4	47.4	27	15.1	3	9	248	0.00	30.143 
15:25	47.3	47.3	47.3	28	15.9	2	8	292	0.00	30.143 
15:30	46.7	46.7	46.7	28	15.3	3	10	248	0.00	30.142 
15:35	46.4	46.4	46.4	27	14.3	2	9	248	0.00	30.142 
15:40	46.2	46.2	46.2	29	15.7	0	3	248	0.00	30.142 
15:45	46.2	46.2	46.2	28	14.9	2	6	45	0.00	30.128 
15:50	46.2	46.2	46.2	27	14.1	2	6	270	0.00	30.128 
15:55	46.4	46.4	46.4	30	16.7	2	7	248	0.00	30.128 
16:00	46.5	46.5	46.5	28	15.2	2	13	90	0.00	30.127 
16:05	46.4	46.4	46.4	28	15.1	2	10	68	0.00	30.127 
16:10	46.2	46.2	46.2	28	14.9	1	6	68	0.00	30.127 
16:15	46.4	46.4	46.4	29	15.9	2	6	270	0.00	30.116 
16:20	46.5	46.5	46.5	29	16.0	1	4	338	0.00	30.116 
16:25	46.4	46.4	46.4	28	15.1	2	7	270	0.00	30.116 
16:30	46.4	46.4	46.4	28	15.1	2	10	248	0.00	30.112 
16:35	46.4	46.4	46.4	28	15.1	2	5	270	0.00	30.112 
16:40	46.2	46.2	46.2	28	14.9	2	7	270	0.00	30.112 
16:45	46.0	46.0	46.0	28	14.7	2	5	248	0.00	30.113 
16:50	45.8	45.8	45.8	28	14.6	2	9	248	0.00	30.113 
16:55	45.5	45.5	45.5	29	15.1	1	4	135	0.00	30.113 
17:00	45.4	45.4	45.4	30	15.8	3	7	90	0.00	30.105 
17:05	45.1	45.1	45.1	30	15.5	2	5	248	0.00	30.105 
17:10	44.9	44.9	44.9	30	15.4	1	4	68	0.00	30.105 
17:15	44.6	44.6	44.6	31	15.9	2	5	45	0.00	30.108 
17:20	44.6	44.6	44.6	31	15.9	2	6	90	0.00	30.108 
17:25	44.3	44.3	44.3	31	15.6	1	4	90	0.00	30.108 
17:30	44.2	44.2	44.2	32	16.2	1	6	248	0.00	30.102 
17:35	44.1	44.1	44.1	32	16.1	1	5	90	0.00	30.102 
17:40	44.1	44.1	44.1	32	16.1	1	5	90	0.00	30.102 
17:45	43.9	43.9	43.9	31	15.2	2	7	68	0.00	30.097 
17:50	43.9	43.9	43.9	32	16.0	1	5	112	0.00	30.097 
17:55	43.9	43.9	43.9	32	16.0	3	7	112	0.00	30.097 
18:00	43.9	43.9	43.9	33	16.7	2	10	270	0.00	30.096 
18:05	43.8	43.8	43.8	33	16.6	1	5	112	0.00	30.096 
18:10	43.5	43.5	43.5	34	17.0	1	8	90	0.00	30.096 
18:15	43.5	43.5	43.5	34	17.0	1	4	90	0.00	30.095 
18:20	43.3	43.3	43.3	35	17.5	1	4	45	0.00	30.095 
18:25	43.2	43.2	43.2	36	18.1	1	5	90	0.00	30.095 
18:30	43.1	43.1	43.1	35	17.3	1	7	90	0.00	30.096 
18:35	42.9	42.9	42.9	36	17.8	1	3	22	0.00	30.096 
18:40	42.8	42.8	42.8	37	18.4	1	5	45	0.00	30.096 
18:45	42.6	42.6	42.6	37	18.2	1	5	45	0.00	30.093 
18:50	42.6	42.6	42.6	38	18.8	1	6	112	0.00	30.093 
18:55	42.6	42.6	42.6	37	18.2	2	5	112	0.00	30.093 
19:00	42.5	42.5	42.5	37	18.1	1	5	112	0.00	30.084 
19:05	42.3	42.3	42.3	39	19.1	1	4	68	0.00	30.084 
19:10	42.3	42.3	42.3	39	19.1	1	4	68	0.00	30.084 
19:15	42.2	42.2	42.2	39	19.0	1	5	68	0.00	30.081 
19:20	42.2	42.2	42.2	39	19.0	2	5	90	0.00	30.081 
19:25	42.2	42.2	42.2	39	19.0	1	6	270	0.00	30.081 
19:30	42.2	42.2	42.2	39	19.0	2	7	45	0.00	30.076 
19:35	42.2	42.2	42.2	39	19.0	1	5	248	0.00	30.076 
19:40	42.1	42.1	42.1	39	18.9	1	4	248	0.00	30.076 
19:45	41.9	41.9	41.9	39	18.8	2	6	90	0.00	30.068 
19:50	41.9	41.9	41.9	39	18.8	2	9	112	0.00	30.068 
19:55	41.9	41.9	41.9	39	18.8	2	7	270	0.00	30.068 
20:00	41.9	41.9	41.9	39	18.8	2	6	68	0.00	30.066 
20:05	41.8	41.8	41.8	39	18.7	2	9	90	0.00	30.066 
20:10	41.8	41.8	41.8	39	18.7	2	9	45	0.00	30.066 
20:15	41.8	41.8	41.8	39	18.7	2	5	338	0.00	30.055 
20:20	41.8	41.8	41.8	39	18.7	3	11	90	0.00	30.055 
20:25	41.6	41.6	41.6	40	19.1	1	4	292	0.00	30.055 
20:30	41.5	41.5	41.5	40	19.0	2	6	248	0.00	30.053 
20:35	41.5	41.5	41.5	40	19.0	2	5	68	0.00	30.053 
20:40	41.3	41.3	41.3	40	18.8	2	10	248	0.00	30.053 
20:45	41.2	41.2	41.2	41	19.3	1	5	270	0.00	30.050 
20:50	41.2	41.2	41.2	41	19.3	3	6	90	0.00	30.050 
20:55	41.2	41.2	41.2	41	19.3	2	10	22	0.00	30.050 
21:00	41.2	41.2	41.2	41	19.3	2	6	90	0.00	30.049 
21:05	41.2	41.2	41.2	41	19.3	2	6	270	0.00	30.049 
21:10	41.1	41.1	41.1	41	19.2	2	9	270	0.00	30.049 
21:15	41.2	41.2	41.2	41	19.3	1	7	248	0.00	30.046 
21:20	41.2	41.2	41.2	41	19.3	2	6	270	0.00	30.046 
21:25	41.2	41.2	41.2	42	19.9	1	5	248	0.00	30.046 
21:30	41.3	41.3	41.3	41	19.4	2	6	225	0.00	30.044 
21:35	41.5	41.5	41.5	41	19.6	2	5	45	0.00	30.044 
21:40	41.8	41.8	41.8	41	19.8	1	6	248	0.00	30.044 
21:45	41.9	41.9	41.9	40	19.4	2	7	248	0.00	30.042 
21:50	42.2	42.2	42.2	40	19.6	3	10	90	0.00	30.042 
21:55	42.2	42.2	42.2	40	19.6	2	7	248	0.00	30.042 
22:00	42.3	42.3	42.3	39	19.1	2	7	248	0.00	30.041 
22:05	42.5	42.5	42.5	39	19.3	2	9	248	0.00	30.041 
22:10	42.6	42.6	42.6	39	19.4	2	6	248	0.00	30.041 
22:15	42.8	42.8	42.8	38	19.0	3	9	270	0.00	30.038 
22:20	42.9	42.9	42.9	38	19.1	2	6	248	0.00	30.038 
22:25	43.1	43.1	43.1	38	19.2	2	7	248	0.00	30.038 
22:30	43.2	43.2	43.2	37	18.7	3	7	248	0.00	30.041 
22:35	43.2	43.2	43.2	38	19.3	2	7	248	0.00	30.041 
22:40	43.2	43.2	43.2	38	19.3	2	7	248	0.00	30.041 
22:45	43.2	43.2	43.2	38	19.3	2	9	248	0.00	30.041 
22:50	43.2	43.2	43.2	38	19.3	2	9	248	0.00	30.041 
22:55	43.2	43.2	43.2	38	19.3	2	5	248	0.00	30.041 
23:00	43.2	43.2	43.2	38	19.3	2	6	248	0.00	30.038 
23:05	43.3	43.3	43.3	37	18.8	2	10	248	0.00	30.038 
23:10	43.3	43.3	43.3	37	18.8	2	5	248	0.00	30.038 
23:15	43.5	43.5	43.5	37	19.0	1	7	248	0.00	30.035 
23:20	43.5	43.5	43.5	37	19.0	2	6	248	0.00	30.035 
23:25	43.6	43.6	43.6	37	19.1	2	10	248	0.00	30.035 
23:30	43.6	43.6	43.6	37	19.1	1	5	225	0.00	30.032 
23:35	43.8	43.8	43.8	37	19.2	2	5	248	0.00	30.032 
23:40	43.8	43.8	43.8	37	19.2	2	5	248	0.00	30.032 
23:45	43.9	43.9	43.9	37	19.3	1	9	248	0.00	30.033 
23:50	44.1	44.1	44.1	36	18.9	2	7	248	0.00	30.033 
23:55	44.3	44.3	44.3	35	18.4	3	7	248	0.00	30.033 

CoCoRaHS
IN-AL-39
A2 Web Hosting
Creative Commons License
GoDaddy
search engine by freefind advanced

loaded 2018-11-15 14:30:35 • last modified 2010-11-18 10:43:29
Privacy PolicyDisclaimer
• wx.awcolley.com is powered by PmWiki v.2002016 •
• all content (unless otherwise noted) © 2018 A W Colley